Time;durP1;ratioP1;P1;durP2;ratioP2;P2;SDS_P1;SDS_P2;PMS_P1;PMS_P2;Temp;Humidity;BMP_temperature;BMP_pressure;BME280_temperature;BME280_humidity;BME280_pressure;Samples;Min_cycle;Max_cycle;Signal;HPM_P1;HPM_P2
2023/05/05 00:05:47;;;;;;;11.43;5.80;;;13.70;87.00;;;;;;5100028;22;20119;-79
2023/05/05 00:08:15;;;;;;;8.50;5.43;;;13.70;87.90;;;;;;5071510;22;20111;-83
2023/05/05 00:10:44;;;;;;;8.00;5.30;;;13.60;88.00;;;;;;4979220;28;20049;-80
2023/05/05 00:13:10;;;;;;;9.40;5.93;;;13.60;88.50;;;;;;4968860;28;20082;-81
2023/05/05 00:15:37;;;;;;;11.30;5.78;;;13.60;89.20;;;;;;4982132;28;20081;-81
2023/05/05 00:18:03;;;;;;;9.00;5.50;;;13.60;89.80;;;;;;4967220;28;20108;-80
2023/05/05 00:20:30;;;;;;;9.85;6.43;;;13.50;90.00;;;;;;4967147;28;20791;-82
2023/05/05 00:22:59;;;;;;;8.52;6.15;;;13.50;90.40;;;;;;4971953;28;20042;-79
2023/05/05 00:25:26;;;;;;;8.98;6.00;;;13.50;90.40;;;;;;4962623;28;20149;-81
2023/05/05 00:27:51;;;;;;;8.63;6.05;;;13.50;90.50;;;;;;4978087;28;20149;-81
2023/05/05 00:30:17;;;;;;;9.27;5.68;;;13.50;90.80;;;;;;4949188;28;20130;-80
2023/05/05 00:32:46;;;;;;;9.38;6.00;;;13.50;91.00;;;;;;4962022;28;20046;-83
2023/05/05 00:35:12;;;;;;;9.40;6.15;;;13.40;91.20;;;;;;4963172;28;20038;-80
2023/05/05 00:37:37;;;;;;;9.82;5.90;;;13.40;91.40;;;;;;4963584;28;20049;-80
2023/05/05 00:40:04;;;;;;;8.77;5.78;;;13.40;91.70;;;;;;4982934;28;20054;-79
2023/05/05 00:42:40;;;;;;;8.68;5.93;;;13.40;91.90;;;;;;4961631;28;21050;-80
2023/05/05 00:45:07;;;;;;;7.32;6.38;;;13.30;91.90;;;;;;4991382;28;20053;-80
2023/05/05 00:47:33;;;;;;;11.00;6.38;;;13.40;92.10;;;;;;4961463;28;20046;-79
2023/05/05 00:49:59;;;;;;;8.80;5.90;;;13.40;92.20;;;;;;4959997;28;20080;-80
2023/05/05 00:52:25;;;;;;;9.13;6.63;;;13.40;92.10;;;;;;4986912;28;20059;-80
2023/05/05 00:54:52;;;;;;;9.20;6.40;;;13.30;92.50;;;;;;4961562;28;20715;-81
2023/05/05 00:57:19;;;;;;;11.30;7.00;;;13.20;92.60;;;;;;4977908;28;20046;-78
2023/05/05 00:59:45;;;;;;;11.13;6.85;;;13.20;93.10;;;;;;4979516;28;20100;-77
2023/05/05 01:02:11;;;;;;;9.70;6.43;;;13.10;93.40;;;;;;4992182;28;20053;-79
2023/05/05 01:04:37;;;;;;;10.68;7.60;;;13.10;93.50;;;;;;4978167;28;20054;-77
2023/05/05 01:07:06;;;;;;;9.95;6.35;;;13.10;93.60;;;;;;4952701;28;20074;-78
2023/05/05 01:10:13;;;;;;;10.15;6.93;;;13.10;93.60;;;;;;4995738;28;20047;-79
2023/05/05 01:13:06;;;;;;;9.68;6.93;;;13.10;94.10;;;;;;4955916;28;20051;-80
2023/05/05 01:15:35;;;;;;;10.02;6.88;;;13.00;94.20;;;;;;4988524;28;20046;-81
2023/05/05 01:18:12;;;;;;;9.80;6.97;;;13.00;94.50;;;;;;4962255;28;20054;-78
2023/05/05 01:21:26;;;;;;;9.98;7.00;;;13.00;94.70;;;;;;4955458;28;20043;-77
2023/05/05 01:24:11;;;;;;;10.85;6.45;;;13.00;94.60;;;;;;4925641;28;20559;-80
2023/05/05 01:26:48;;;;;;;9.52;6.90;;;12.90;95.00;;;;;;4953432;28;20157;-79
2023/05/05 01:29:42;;;;;;;9.75;6.57;;;12.90;95.10;;;;;;4969375;28;20046;-78
2023/05/05 01:32:13;;;;;;;9.68;6.50;;;12.90;95.10;;;;;;4958058;28;20078;-79
2023/05/05 01:34:49;;;;;;;8.45;6.10;;;12.90;95.20;;;;;;4987435;28;20488;-78
2023/05/05 01:37:23;;;;;;;10.75;6.68;;;12.80;95.70;;;;;;4954012;28;20086;-79
2023/05/05 01:39:54;;;;;;;11.23;6.75;;;12.80;95.80;;;;;;4946008;28;20625;-80
2023/05/05 01:42:21;;;;;;;11.38;6.38;;;12.70;96.20;;;;;;4957395;28;20166;-82
2023/05/05 01:44:48;;;;;;;10.38;6.28;;;12.70;96.40;;;;;;4955503;28;20051;-83
2023/05/05 01:47:20;;;;;;;12.05;6.78;;;12.70;96.60;;;;;;4957654;28;20050;-81
2023/05/05 01:49:47;;;;;;;11.63;6.60;;;12.70;96.80;;;;;;4977208;28;20055;-82
2023/05/05 01:52:17;;;;;;;10.00;6.45;;;12.70;96.90;;;;;;4953579;28;20047;-80
2023/05/05 01:54:48;;;;;;;8.30;6.53;;;12.80;96.70;;;;;;4957439;28;20047;-80
2023/05/05 01:57:15;;;;;;;10.05;6.28;;;12.80;96.60;;;;;;4956948;28;20042;-79
2023/05/05 01:59:41;;;;;;;9.23;5.75;;;12.80;96.30;;;;;;4938742;28;20577;-80
2023/05/05 02:02:11;;;;;;;9.07;6.13;;;12.90;96.10;;;;;;4973247;28;20050;-82
2023/05/05 02:04:41;;;;;;;9.38;6.32;;;12.90;96.20;;;;;;4950806;28;20093;-84
2023/05/05 02:07:07;;;;;;;10.70;6.85;;;12.80;96.40;;;;;;4968955;28;20101;-83
2023/05/05 02:09:35;;;;;;;8.23;5.85;;;12.80;96.50;;;;;;4958391;28;20050;-83
2023/05/05 02:12:02;;;;;;;7.70;6.20;;;12.80;96.60;;;;;;4974648;28;20057;-82
2023/05/05 02:14:29;;;;;;;9.23;6.28;;;12.80;96.70;;;;;;4959203;28;20430;-84
2023/05/05 02:16:56;;;;;;;9.32;6.15;;;12.80;96.80;;;;;;4959627;28;20073;-79
2023/05/05 02:19:29;;;;;;;9.45;6.90;;;12.70;97.00;;;;;;4957636;28;20046;-81
2023/05/05 02:21:56;;;;;;;9.90;5.95;;;12.70;97.10;;;;;;4958199;28;20042;-80
2023/05/05 02:24:22;;;;;;;6.88;6.07;;;12.70;97.00;;;;;;4975038;28;20390;-82
2023/05/05 02:26:50;;;;;;;8.82;6.20;;;12.70;97.10;;;;;;4970298;28;20050;-82
2023/05/05 02:29:19;;;;;;;11.40;6.40;;;12.70;97.00;;;;;;4961206;28;20058;-83
2023/05/05 02:31:52;;;;;;;7.57;5.63;;;12.70;97.30;;;;;;4976797;28;20398;-82
2023/05/05 02:34:29;;;;;;;9.85;6.22;;;12.70;97.60;;;;;;4974329;28;20058;-80
2023/05/05 02:37:02;;;;;;;7.85;5.75;;;12.70;97.30;;;;;;4977841;28;20137;-82
2023/05/05 02:39:35;;;;;;;9.02;6.00;;;12.70;97.50;;;;;;4985203;28;20047;-82
2023/05/05 02:42:09;;;;;;;9.15;6.03;;;12.70;97.60;;;;;;4976769;28;20283;-82
2023/05/05 02:44:37;;;;;;;10.13;6.28;;;12.60;98.00;;;;;;4980132;28;20042;-79
2023/05/05 02:47:06;;;;;;;8.07;5.57;;;12.50;98.10;;;;;;4992999;28;20128;-82
2023/05/05 02:49:32;;;;;;;8.90;6.43;;;12.60;98.00;;;;;;4949031;28;20042;-84
2023/05/05 02:51:58;;;;;;;8.93;6.15;;;12.60;98.20;;;;;;4961528;28;20105;-82
2023/05/05 02:54:25;;;;;;;9.57;6.00;;;12.60;98.30;;;;;;4964741;28;20153;-83
2023/05/05 02:56:56;;;;;;;8.50;6.00;;;12.50;98.40;;;;;;4974430;28;20057;-79
2023/05/05 02:59:25;;;;;;;8.82;6.43;;;12.50;98.50;;;;;;4969535;28;20515;-78
2023/05/05 03:02:15;;;;;;;7.32;5.97;;;12.50;98.80;;;;;;4972194;28;20052;-78
2023/05/05 03:04:59;;;;;;;9.13;5.97;;;12.40;98.80;;;;;;4968032;28;20316;-78
2023/05/05 03:07:37;;;;;;;8.25;5.82;;;12.40;99.00;;;;;;4971601;28;20093;-79
2023/05/05 03:10:08;;;;;;;11.00;6.45;;;12.30;99.40;;;;;;4990365;28;20050;-78
2023/05/05 03:12:44;;;;;;;8.05;6.25;;;12.40;99.50;;;;;;4953760;28;20516;-79
2023/05/05 03:15:12;;;;;;;8.48;6.07;;;12.30;99.80;;;;;;4958147;28;20054;-79
2023/05/05 03:17:40;;;;;;;9.50;6.30;;;12.30;99.90;;;;;;4958964;28;20169;-79
2023/05/05 03:20:07;;;;;;;9.57;6.30;;;12.30;99.90;;;;;;4973113;28;20515;-78
2023/05/05 03:22:36;;;;;;;8.80;6.93;;;12.30;99.90;;;;;;4972181;28;20081;-78
2023/05/05 03:25:06;;;;;;;8.93;6.82;;;12.20;99.90;;;;;;4974134;28;20050;-78
2023/05/05 03:27:31;;;;;;;8.35;6.03;;;12.30;99.90;;;;;;4956737;28;20074;-79
2023/05/05 03:29:57;;;;;;;10.00;7.25;;;12.20;99.90;;;;;;4956876;28;20085;-78
2023/05/05 03:32:23;;;;;;;8.30;6.30;;;12.10;99.90;;;;;;4940267;28;20054;-78
2023/05/05 03:34:49;;;;;;;8.15;5.80;;;12.10;99.90;;;;;;4973416;28;20055;-78
2023/05/05 03:37:15;;;;;;;9.07;6.72;;;12.10;99.90;;;;;;4973518;28;20045;-78
2023/05/05 03:39:41;;;;;;;8.88;6.22;;;12.10;99.90;;;;;;4956495;28;20038;-78
2023/05/05 03:42:15;;;;;;;11.85;6.57;;;12.10;99.90;;;;;;4957325;28;20417;-78
2023/05/05 03:44:41;;;;;;;9.57;6.72;;;12.10;99.90;;;;;;4965666;28;20054;-78
2023/05/05 03:47:07;;;;;;;8.98;6.63;;;12.10;99.90;;;;;;4966169;28;20050;-78
2023/05/05 03:49:33;;;;;;;8.35;6.32;;;12.10;99.90;;;;;;4967009;28;20038;-78
2023/05/05 03:51:59;;;;;;;9.07;7.18;;;12.10;99.90;;;;;;4974652;28;20057;-78
2023/05/05 03:54:25;;;;;;;8.00;6.35;;;12.10;99.90;;;;;;4954640;28;20117;-78
2023/05/05 03:56:54;;;;;;;9.15;6.88;;;12.10;99.90;;;;;;4984005;28;20189;-80
2023/05/05 03:59:23;;;;;;;8.45;6.65;;;12.10;99.90;;;;;;4969875;28;20122;-80
2023/05/05 04:01:49;;;;;;;16.38;8.65;;;12.20;99.90;;;;;;4996691;28;20359;-80
2023/05/05 04:04:15;;;;;;;25.50;12.10;;;12.10;99.90;;;;;;4955813;28;20053;-80
2023/05/05 04:06:41;;;;;;;21.35;11.88;;;12.10;99.90;;;;;;4969060;28;20057;-79
2023/05/05 04:09:07;;;;;;;15.63;11.45;;;12.10;99.90;;;;;;4969588;28;20050;-80
2023/05/05 04:11:32;;;;;;;13.18;11.25;;;12.00;99.90;;;;;;4953541;28;20069;-81
2023/05/05 04:13:58;;;;;;;15.15;12.00;;;11.80;99.90;;;;;;4955561;28;20097;-80
2023/05/05 04:16:24;;;;;;;15.35;11.85;;;11.70;99.90;;;;;;4982627;28;20145;-80
2023/05/05 04:18:54;;;;;;;22.77;13.23;;;11.50;99.90;;;;;;4945528;28;20459;-80
2023/05/05 04:21:19;;;;;;;17.00;11.80;;;11.40;99.90;;;;;;4970422;28;20038;-79
2023/05/05 04:23:45;;;;;;;17.55;12.68;;;11.30;99.90;;;;;;4971506;28;20035;-80
2023/05/05 04:26:11;;;;;;;16.17;12.55;;;11.30;99.90;;;;;;5020201;28;20066;-80
2023/05/05 04:28:37;;;;;;;19.27;11.95;;;11.20;99.90;;;;;;4988582;28;20078;-80
2023/05/05 04:31:03;;;;;;;14.55;12.32;;;11.20;99.90;;;;;;4990041;28;20096;-80
2023/05/05 04:33:29;;;;;;;19.83;13.40;;;11.10;99.90;;;;;;4984838;28;20144;-79
2023/05/05 04:35:55;;;;;;;20.50;14.18;;;11.10;99.90;;;;;;4971780;28;20097;-78
2023/05/05 04:38:24;;;;;;;20.27;14.20;;;11.10;99.90;;;;;;4965834;28;20046;-77
2023/05/05 04:40:49;;;;;;;19.65;14.13;;;11.10;99.90;;;;;;5001358;28;20050;-77
2023/05/05 04:43:15;;;;;;;20.55;16.17;;;11.00;99.90;;;;;;4968123;28;20538;-78
2023/05/05 04:45:50;;;;;;;17.02;14.40;;;10.90;99.90;;;;;;4965666;28;20452;-77
2023/05/05 04:48:19;;;;;;;16.73;13.15;;;10.80;99.90;;;;;;4984142;28;20038;-77
2023/05/05 04:50:46;;;;;;;18.83;14.05;;;10.70;99.90;;;;;;4951845;28;20038;-79
2023/05/05 04:53:14;;;;;;;18.83;13.73;;;10.60;99.90;;;;;;4964470;28;20065;-78
2023/05/05 04:55:40;;;;;;;17.85;11.68;;;10.60;99.90;;;;;;4978017;28;20052;-78
2023/05/05 04:58:06;;;;;;;20.35;16.45;;;10.60;99.90;;;;;;4959665;28;20055;-78
2023/05/05 05:00:32;;;;;;;14.05;12.60;;;10.60;99.90;;;;;;4957387;28;20046;-78
2023/05/05 05:03:01;;;;;;;16.48;13.50;;;10.60;99.90;;;;;;4982818;28;20604;-78
2023/05/05 05:05:26;;;;;;;15.48;14.00;;;10.50;99.90;;;;;;4996655;28;20083;-78
2023/05/05 05:07:52;;;;;;;19.67;17.77;;;10.50;99.90;;;;;;4950804;28;20085;-78
2023/05/05 05:10:18;;;;;;;16.70;12.98;;;10.60;99.90;;;;;;5011989;28;20042;-78
2023/05/05 05:12:46;;;;;;;15.90;14.27;;;10.60;99.90;;;;;;4951377;28;20049;-79
2023/05/05 05:15:12;;;;;;;16.27;14.57;;;10.60;99.90;;;;;;4952989;28;20516;-78
2023/05/05 05:17:38;;;;;;;14.90;13.32;;;10.60;99.90;;;;;;4972128;28;20073;-78
2023/05/05 05:20:05;;;;;;;15.98;14.25;;;10.50;99.90;;;;;;4966798;28;20096;-79
2023/05/05 05:22:31;;;;;;;14.98;13.27;;;10.50;99.90;;;;;;4956492;28;20052;-79
2023/05/05 05:24:57;;;;;;;15.27;13.52;;;10.50;99.90;;;;;;4980082;28;20076;-79
2023/05/05 05:27:23;;;;;;;15.88;14.27;;;10.50;99.90;;;;;;4987033;28;20394;-79
2023/05/05 05:29:48;;;;;;;17.80;15.73;;;10.50;99.90;;;;;;4952753;28;20181;-79
2023/05/05 05:32:14;;;;;;;15.73;14.18;;;10.50;99.90;;;;;;4937291;28;20042;-79
2023/05/05 05:34:40;;;;;;;15.50;14.00;;;10.60;99.90;;;;;;4982936;28;20043;-79
2023/05/05 05:37:06;;;;;;;17.33;15.73;;;10.60;99.90;;;;;;4982793;28;20177;-79
2023/05/05 05:39:32;;;;;;;15.52;14.13;;;10.60;99.90;;;;;;4999568;28;20079;-79
2023/05/05 05:41:57;;;;;;;15.23;13.63;;;10.70;99.90;;;;;;4999117;28;20042;-79
2023/05/05 05:44:23;;;;;;;14.27;12.80;;;10.70;99.90;;;;;;4976346;28;20860;-79
2023/05/05 05:46:49;;;;;;;15.15;13.48;;;10.80;99.90;;;;;;4962845;28;20046;-79
2023/05/05 05:49:18;;;;;;;15.68;13.45;;;10.80;99.90;;;;;;4970921;28;20046;-80
2023/05/05 05:51:43;;;;;;;19.25;13.90;;;10.90;99.90;;;;;;4984676;28;20045;-79
2023/05/05 05:54:12;;;;;;;15.07;13.35;;;11.00;99.90;;;;;;4986058;28;20038;-79
2023/05/05 05:56:41;;;;;;;14.32;12.82;;;11.00;99.90;;;;;;4967983;28;20051;-80
2023/05/05 05:59:09;;;;;;;14.85;13.35;;;11.10;99.90;;;;;;4969747;28;20101;-80
2023/05/05 06:01:35;;;;;;;14.65;13.25;;;11.10;99.90;;;;;;4949850;28;20497;-80
2023/05/05 06:04:01;;;;;;;14.32;12.93;;;11.20;99.90;;;;;;4954720;28;20123;-80
2023/05/05 06:06:27;;;;;;;14.70;13.25;;;11.20;99.90;;;;;;4973510;28;20660;-80
2023/05/05 06:08:53;;;;;;;15.98;12.70;;;11.20;99.90;;;;;;4968359;28;20054;-80
2023/05/05 06:11:19;;;;;;;13.93;12.52;;;11.40;99.90;;;;;;4965032;28;20194;-80
2023/05/05 06:13:45;;;;;;;15.35;13.70;;;11.40;99.90;;;;;;4970649;28;20113;-80
2023/05/05 06:16:11;;;;;;;14.85;13.32;;;11.40;99.90;;;;;;4955043;28;20470;-80
2023/05/05 06:18:37;;;;;;;15.15;13.55;;;11.40;99.90;;;;;;4954623;28;20121;-80
2023/05/05 06:21:02;;;;;;;15.10;13.57;;;11.50;99.90;;;;;;4986911;28;20397;-80
2023/05/05 06:23:28;;;;;;;17.25;13.90;;;11.50;99.90;;;;;;4957028;28;20069;-79
2023/05/05 06:25:54;;;;;;;15.13;13.68;;;11.60;99.90;;;;;;5002296;28;20046;-79
2023/05/05 06:28:23;;;;;;;15.63;13.90;;;11.60;99.90;;;;;;4972035;28;20042;-79
2023/05/05 06:30:52;;;;;;;14.50;13.02;;;11.60;99.90;;;;;;4970601;28;20480;-81
2023/05/05 06:33:18;;;;;;;15.15;13.60;;;11.60;99.90;;;;;;5000778;28;20516;-80
2023/05/05 06:35:43;;;;;;;16.75;14.38;;;11.60;99.90;;;;;;4971749;28;20034;-80
2023/05/05 06:38:09;;;;;;;15.60;14.07;;;11.70;99.90;;;;;;4985891;28;20056;-81
2023/05/05 06:40:35;;;;;;;15.82;14.23;;;11.80;99.90;;;;;;4997863;28;20050;-81
2023/05/05 06:43:01;;;;;;;13.55;12.25;;;11.80;99.90;;;;;;4974309;28;20050;-80
2023/05/05 06:45:27;;;;;;;15.25;13.85;;;11.80;99.90;;;;;;4967935;28;20854;-81
2023/05/05 06:47:53;;;;;;;14.75;13.25;;;11.80;99.90;;;;;;4970738;28;20042;-81
2023/05/05 06:50:19;;;;;;;15.52;14.02;;;11.80;99.90;;;;;;4970821;28;20476;-80
2023/05/05 06:52:44;;;;;;;15.98;14.45;;;11.80;99.90;;;;;;4972370;28;20045;-80
2023/05/05 06:55:10;;;;;;;15.35;13.85;;;12.00;99.90;;;;;;4962881;28;20049;-81
2023/05/05 06:57:39;;;;;;;15.43;13.85;;;12.10;99.90;;;;;;4955628;28;20030;-81
2023/05/05 07:00:08;;;;;;;15.50;13.90;;;12.20;99.90;;;;;;4951395;28;20037;-81
2023/05/05 07:02:34;;;;;;;15.70;14.32;;;12.30;99.90;;;;;;4969129;28;20201;-81
2023/05/05 07:05:00;;;;;;;14.88;13.35;;;12.40;99.90;;;;;;4968266;28;20129;-81
2023/05/05 07:07:25;;;;;;;15.38;13.32;;;12.60;99.90;;;;;;4964306;28;20842;-82
2023/05/05 07:09:51;;;;;;;15.20;13.70;;;12.70;99.90;;;;;;4968637;28;20046;-82
2023/05/05 07:12:17;;;;;;;15.75;14.13;;;12.80;99.90;;;;;;4951219;28;20501;-82
2023/05/05 07:14:43;;;;;;;15.77;14.00;;;12.90;99.90;;;;;;4982276;28;20176;-82
2023/05/05 07:17:10;;;;;;;17.83;13.98;;;13.00;99.90;;;;;;4999265;28;20046;-81
2023/05/05 07:19:35;;;;;;;17.05;14.35;;;13.10;99.90;;;;;;4968322;28;20050;-82
2023/05/05 07:22:01;;;;;;;15.32;13.80;;;13.20;99.90;;;;;;4978978;28;20061;-82
2023/05/05 07:24:27;;;;;;;16.48;14.80;;;13.20;99.90;;;;;;4965423;28;20102;-82
2023/05/05 07:26:53;;;;;;;15.57;13.95;;;13.20;99.90;;;;;;4960250;28;20118;-83
2023/05/05 07:29:19;;;;;;;15.73;14.10;;;13.40;99.90;;;;;;4966202;28;20050;-83
2023/05/05 07:31:46;;;;;;;15.40;13.80;;;13.50;99.90;;;;;;4967348;28;20116;-82
2023/05/05 07:34:11;;;;;;;16.85;15.15;;;13.60;99.90;;;;;;4981135;28;20054;-82
2023/05/05 07:36:37;;;;;;;16.40;14.70;;;13.80;99.90;;;;;;4936664;28;20129;-82
2023/05/05 07:39:03;;;;;;;16.15;14.48;;;13.90;99.90;;;;;;4967015;28;20480;-83
2023/05/05 07:41:29;;;;;;;16.30;14.90;;;14.10;99.90;;;;;;4988578;28;20187;-83
2023/05/05 07:43:55;;;;;;;16.08;14.38;;;14.30;99.90;;;;;;4950381;28;20042;-83
2023/05/05 07:46:21;;;;;;;16.10;14.50;;;14.40;99.90;;;;;;4995907;28;20129;-84
2023/05/05 07:48:47;;;;;;;16.38;14.45;;;14.60;99.90;;;;;;4953833;28;20496;-83
2023/05/05 07:51:12;;;;;;;15.80;14.07;;;14.80;99.90;;;;;;5005789;28;20049;-83
2023/05/05 07:53:40;;;;;;;17.73;15.25;;;15.00;99.90;;;;;;4971467;28;20050;-84
2023/05/05 07:56:07;;;;;;;16.45;14.65;;;15.10;99.90;;;;;;4986400;28;20485;-84
2023/05/05 07:58:33;;;;;;;16.30;14.55;;;15.30;99.90;;;;;;4942696;28;20038;-84
2023/05/05 08:01:00;;;;;;;15.20;13.75;;;15.50;99.90;;;;;;4983575;28;20586;-84
2023/05/05 08:03:26;;;;;;;17.75;16.05;;;15.60;99.90;;;;;;4951775;28;20038;-82
2023/05/05 08:05:55;;;;;;;16.50;14.68;;;15.80;99.90;;;;;;4986495;28;20460;-84
2023/05/05 08:08:25;;;;;;;18.43;15.50;;;15.90;99.90;;;;;;4987642;28;20572;-84
2023/05/05 08:10:51;;;;;;;17.25;15.45;;;16.10;99.90;;;;;;4970062;28;20597;-84
2023/05/05 08:13:17;;;;;;;16.20;14.38;;;16.20;99.90;;;;;;4967046;28;20067;-85
2023/05/05 08:15:44;;;;;;;17.55;15.70;;;16.40;99.90;;;;;;4955836;28;20041;-84
2023/05/05 08:18:09;;;;;;;16.42;14.70;;;16.50;99.90;;;;;;4972715;28;20050;-85
2023/05/05 08:20:35;;;;;;;16.65;14.80;;;16.70;99.90;;;;;;4954496;28;20482;-84
2023/05/05 08:23:01;;;;;;;16.02;14.52;;;16.90;99.90;;;;;;5020929;28;20054;-84
2023/05/05 08:25:27;;;;;;;17.20;15.48;;;17.00;99.90;;;;;;4967503;28;20102;-84
2023/05/05 08:27:53;;;;;;;16.35;14.75;;;17.00;99.90;;;;;;4941250;28;20044;-82
2023/05/05 08:30:20;;;;;;;16.58;14.18;;;17.10;99.90;;;;;;5003901;28;20124;-85
2023/05/05 08:32:46;;;;;;;17.17;15.63;;;17.20;99.90;;;;;;4971115;28;20043;-85
2023/05/05 08:35:12;;;;;;;16.63;14.88;;;17.30;99.90;;;;;;4987742;28;20389;-84
2023/05/05 08:37:38;;;;;;;16.55;14.85;;;17.50;99.90;;;;;;4955854;28;20090;-85
2023/05/05 08:40:04;;;;;;;15.85;14.35;;;17.60;99.90;;;;;;4977204;28;20061;-85
2023/05/05 08:42:30;;;;;;;18.00;16.30;;;17.70;99.90;;;;;;4952967;28;20039;-84
2023/05/05 08:44:57;;;;;;;17.77;15.98;;;17.60;99.90;;;;;;4971441;28;20042;-82
2023/05/05 08:47:23;;;;;;;18.60;16.75;;;17.60;99.90;;;;;;4986767;28;20775;-75
2023/05/05 08:49:52;;;;;;;20.38;18.40;;;17.70;99.90;;;;;;4995706;28;20085;-74
2023/05/05 08:52:23;;;;;;;18.88;17.08;;;17.70;99.90;;;;;;4979265;28;20227;-74
2023/05/05 08:55:35;;;;;;;18.38;16.42;;;17.90;99.90;;;;;;4983930;28;20061;-73
2023/05/05 08:58:03;;;;;;;21.08;18.88;;;18.00;99.90;;;;;;4989590;28;20054;-75
2023/05/05 09:00:29;;;;;;;20.42;18.38;;;18.10;99.90;;;;;;4982606;28;20049;-74
2023/05/05 09:02:56;;;;;;;19.67;17.77;;;18.20;99.90;;;;;;5004554;28;20046;-74
2023/05/05 09:05:23;;;;;;;19.92;18.05;;;18.40;99.90;;;;;;4980075;28;20046;-74
2023/05/05 09:07:49;;;;;;;19.30;17.35;;;18.60;99.90;;;;;;4980944;28;20517;-74
2023/05/05 09:10:15;;;;;;;20.50;18.52;;;18.70;99.90;;;;;;4970272;28;20130;-74
2023/05/05 09:12:41;;;;;;;19.73;17.63;;;19.00;99.90;;;;;;4939718;28;20121;-73
2023/05/05 09:15:10;;;;;;;20.75;18.67;;;19.10;99.90;;;;;;4968080;28;20621;-74
2023/05/05 09:17:36;;;;;;;20.92;18.92;;;19.00;99.90;;;;;;4927063;28;20073;-74
2023/05/05 09:20:07;;;;;;;20.02;18.13;;;19.00;99.90;;;;;;4970171;28;20847;-74
2023/05/05 09:22:42;;;;;;;20.30;18.33;;;19.10;99.90;;;;;;4984341;28;20043;-75
2023/05/05 09:25:10;;;;;;;21.10;19.10;;;19.10;99.90;;;;;;4978937;28;20047;-74
2023/05/05 09:27:39;;;;;;;20.23;18.30;;;19.10;99.90;;;;;;4970854;28;20113;-74
2023/05/05 09:30:06;;;;;;;18.25;16.55;;;19.10;99.90;;;;;;4982109;28;20053;-74
2023/05/05 09:32:49;;;;;;;19.58;17.77;;;19.20;99.90;;;;;;4984021;28;20044;-74
2023/05/05 09:35:16;;;;;;;19.70;17.77;;;19.30;99.90;;;;;;4982067;28;20497;-75
2023/05/05 09:37:42;;;;;;;21.30;19.33;;;19.50;99.90;;;;;;4979479;28;20061;-75
2023/05/05 09:40:10;;;;;;;20.27;18.25;;;19.60;99.90;;;;;;4969909;28;20049;-74
2023/05/05 09:42:36;;;;;;;20.10;18.08;;;19.70;99.90;;;;;;4965925;28;20121;-75
2023/05/05 09:45:23;;;;;;;20.48;18.40;;;19.60;99.90;;;;;;4967614;28;20247;-75
2023/05/05 09:47:49;;;;;;;19.98;18.02;;;19.50;99.90;;;;;;4967313;28;20118;-75
2023/05/05 09:50:19;;;;;;;20.35;18.48;;;19.30;99.90;;;;;;4968238;28;20133;-75
2023/05/05 09:52:56;;;;;;;19.90;18.10;;;19.30;99.90;;;;;;4967917;28;20374;-77
2023/05/05 09:55:30;;;;;;;20.45;18.25;;;19.50;99.90;;;;;;4970547;28;20084;-78
2023/05/05 09:57:56;;;;;;;19.35;17.52;;;19.60;99.90;;;;;;4958221;28;20054;-78
2023/05/05 10:00:38;;;;;;;19.85;17.83;;;19.60;99.90;;;;;;4985343;28;20066;-77
2023/05/05 10:03:04;;;;;;;19.73;17.83;;;19.70;99.90;;;;;;4964935;28;20050;-77
2023/05/05 10:05:30;;;;;;;20.98;19.08;;;19.80;99.90;;;;;;4971434;28;20053;-78
2023/05/05 10:08:14;;;;;;;20.73;18.67;;;19.80;99.90;;;;;;4969279;28;20051;-78
2023/05/05 10:10:50;;;;;;;20.75;18.75;;;19.90;99.90;;;;;;4985858;28;20046;-77
2023/05/05 10:13:19;;;;;;;20.85;18.85;;;19.80;99.90;;;;;;4986200;28;20049;-77
2023/05/05 10:15:47;;;;;;;22.40;19.95;;;19.80;99.90;;;;;;4977062;28;20035;-78
2023/05/05 10:18:16;;;;;;;21.10;18.98;;;19.70;99.90;;;;;;4985180;28;20444;-77
2023/05/05 10:20:44;;;;;;;21.52;19.40;;;19.70;99.90;;;;;;4974319;28;20054;-78
2023/05/05 10:23:14;;;;;;;20.23;18.23;;;19.70;99.90;;;;;;4966945;28;20110;-78
2023/05/05 10:25:48;;;;;;;;;;;19.80;99.90;;;;;;4969997;28;20408;-78
2023/05/05 10:28:22;;;;;;;21.10;19.02;;;19.90;99.90;;;;;;5017462;28;19925;-77
2023/05/05 10:30:53;;;;;;;19.40;17.60;;;20.00;99.90;;;;;;4984481;28;20050;-77
2023/05/05 10:33:29;;;;;;;20.10;18.10;;;20.10;99.90;;;;;;4980983;28;20581;-77
2023/05/05 10:35:59;;;;;;;18.77;16.88;;;20.10;99.90;;;;;;4984885;28;20238;-77
2023/05/05 10:38:29;;;;;;;20.98;17.38;;;20.10;99.90;;;;;;4967011;28;20469;-77
2023/05/05 10:40:56;;;;;;;;;;;20.10;99.90;;;;;;4978593;28;20467;-77
2023/05/05 10:43:23;;;;;;;12.70;11.00;;;20.10;99.90;;;;;;4983981;28;20000;-78
2023/05/05 10:45:49;;;;;;;12.50;10.13;;;20.30;99.90;;;;;;4968670;28;20129;-77
2023/05/05 10:48:23;;;;;;;10.30;8.82;;;20.50;99.90;;;;;;4966728;28;20446;-77
2023/05/05 10:50:58;;;;;;;9.20;7.45;;;20.80;99.90;;;;;;4985407;28;20551;-78
2023/05/05 10:53:53;;;;;;;10.15;6.97;;;20.90;99.90;;;;;;4980302;28;20077;-78
2023/05/05 10:56:31;;;;;;;10.00;8.15;;;20.90;99.90;;;;;;4933183;28;21324;-77
2023/05/05 10:58:57;;;;;;;10.98;8.65;;;21.00;99.90;;;;;;4985778;28;20054;-78
2023/05/05 11:01:33;;;;;;;10.68;9.52;;;21.00;99.90;;;;;;4975251;28;20702;-77
2023/05/05 11:04:16;;;;;;;11.48;8.80;;;21.10;99.90;;;;;;5000955;28;20050;-78
2023/05/05 11:07:07;;;;;;;11.73;9.20;;;21.00;99.90;;;;;;4967693;28;20046;-77
2023/05/05 11:09:40;;;;;;;12.45;9.40;;;20.90;99.90;;;;;;4968564;28;20149;-77
2023/05/05 11:12:07;;;;;;;8.73;7.57;;;20.70;99.90;;;;;;4966816;28;20081;-77
2023/05/05 11:14:33;;;;;;;8.57;6.68;;;20.60;99.90;;;;;;4979906;28;20057;-78
2023/05/05 11:16:59;;;;;;;7.50;5.32;;;20.50;99.90;;;;;;4965167;28;20061;-78
2023/05/05 11:19:43;;;;;;;8.43;4.53;;;20.40;99.90;;;;;;4962154;28;20034;-79
2023/05/05 11:22:09;;;;;;;6.25;3.97;;;20.40;99.90;;;;;;4968959;28;20636;-78
2023/05/05 11:24:36;;;;;;;7.28;4.55;;;20.30;99.90;;;;;;4982242;28;20058;-78
2023/05/05 11:27:02;;;;;;;6.38;4.00;;;20.40;99.90;;;;;;4984270;28;20497;-78
2023/05/05 11:30:07;;;;;;;6.95;3.20;;;20.40;99.90;;;;;;4968432;28;20127;-78
2023/05/05 11:32:33;;;;;;;6.20;2.85;;;20.40;99.90;;;;;;4905271;29;20203;-78
2023/05/05 11:35:00;;;;;;;4.80;2.60;;;20.40;99.90;;;;;;4892180;29;20052;-78
2023/05/05 11:37:29;;;;;;;4.70;1.75;;;20.40;99.90;;;;;;4924386;28;20046;-78
2023/05/05 11:40:19;;;;;;;4.73;1.80;;;20.50;99.90;;;;;;4986383;28;20076;-77
2023/05/05 11:42:45;;;;;;;5.25;1.67;;;20.50;99.70;;;;;;4981039;28;20472;-76
2023/05/05 11:45:22;;;;;;;5.70;2.45;;;20.50;98.80;;;;;;4957922;28;20042;-76
2023/05/05 11:47:48;;;;;;;4.60;2.80;;;20.40;98.50;;;;;;5002343;28;20141;-77
2023/05/05 11:50:16;;;;;;;5.95;2.95;;;20.40;98.40;;;;;;4986542;28;20173;-77
2023/05/05 11:52:41;;;;;;;5.30;4.13;;;20.40;99.60;;;;;;4979126;28;20050;-77
2023/05/05 11:55:08;;;;;;;6.85;4.15;;;20.40;99.10;;;;;;4969838;28;20058;-77
2023/05/05 11:57:34;;;;;;;7.68;4.00;;;20.40;99.70;;;;;;4973169;28;20035;-77
2023/05/05 12:00:02;;;;;;;6.90;3.45;;;20.30;99.90;;;;;;4983448;28;20783;-76
2023/05/05 12:02:29;;;;;;;6.15;4.05;;;20.30;99.90;;;;;;4983346;28;20050;-77
2023/05/05 12:04:55;;;;;;;6.20;3.35;;;20.30;99.60;;;;;;4971020;28;20105;-77
2023/05/05 12:07:24;;;;;;;7.03;4.30;;;20.30;98.80;;;;;;4971194;28;20100;-77
2023/05/05 12:09:50;;;;;;;6.18;3.85;;;20.30;99.90;;;;;;4988053;28;20051;-78
2023/05/05 12:12:18;;;;;;;6.82;4.07;;;20.30;99.90;;;;;;4957055;28;20185;-77
2023/05/05 12:14:51;;;;;;;6.63;3.70;;;20.40;99.90;;;;;;4982896;28;20108;-77
2023/05/05 12:17:21;;;;;;;6.50;3.40;;;20.50;99.90;;;;;;4982719;28;20117;-77
2023/05/05 12:19:49;;;;;;;7.15;4.25;;;20.50;99.90;;;;;;5001835;28;20103;-77
2023/05/05 12:22:24;;;;;;;8.32;3.72;;;20.50;98.90;;;;;;4987665;28;20049;-77
2023/05/05 12:25:03;;;;;;;6.53;4.30;;;20.50;99.90;;;;;;4983773;28;20617;-77
2023/05/05 12:27:29;;;;;;;8.33;5.33;;;20.50;99.90;;;;;;4969314;28;20069;-78
2023/05/05 12:29:56;;;;;;;9.57;5.63;;;20.50;99.90;;;;;;4978089;28;20806;-78
2023/05/05 12:32:26;;;;;;;9.18;5.80;;;20.40;99.90;;;;;;4982678;28;20045;-78
2023/05/05 12:34:56;;;;;;;9.48;5.53;;;20.30;99.90;;;;;;4968765;28;20081;-78
2023/05/05 12:37:25;;;;;;;8.23;5.10;;;20.10;99.70;;;;;;4978395;28;20069;-77
2023/05/05 12:39:54;;;;;;;7.75;5.05;;;20.00;99.80;;;;;;4960200;28;20101;-77
2023/05/05 12:42:21;;;;;;;9.00;5.72;;;19.80;99.90;;;;;;4968149;28;20382;-76
2023/05/05 12:44:47;;;;;;;8.30;6.20;;;19.70;99.90;;;;;;4962723;28;20053;-77
2023/05/05 12:47:13;;;;;;;9.70;6.78;;;19.60;99.90;;;;;;4984829;28;20051;-76
2023/05/05 12:49:46;;;;;;;11.57;8.15;;;19.50;99.90;;;;;;4972407;28;20050;-76